Trimble, Illinois
Current Conditions -  °F | °C
As of 6:15 AM on Monday 20 Oct 2014 (Local Time) from KRSV Reporting Station
Broken Clouds Broken Clouds  
Wind Chill: 50°   Ceiling: 11000
Heat Index: 50°   Visibility: 10mi
Dew Point: 48°   Wind: 6mph
Humidity: 92%   Direction: 190°S
Pressure: 29.97"   Gusts: NA
Location:  39.0131°N, 87.7657°W
Report Text: KRSV 201115Z AUTO 19005KT 10SM BKN110 10/09 A2997 RMK AO2 T01000087
Loading
Personal Weather Stations






























Interactive Weather Map
Tropical Storm Tracking
New forecast layout! Learn more

10-Day Weather Forecast

Advertisements
Track Severe Weather on mobile